FDX3951 KEWR-KONT
Flight info
| Callsign | FDX3951 |
|---|---|
| Flight time | N/A |
| Altitude | 28000 |
| Route | PARKE J6 HVQ J78 PXV/N0510F300 J78 TUL AGGIY Q162 GUP J96 DRK DAFNY SCBBY2 |
| Aircraft | B77L/H-SDE1E2E3FGHIJ2J3J4J5M1RWXY/LB1D1 |
Departure
| Time | 2026-05-01 12:53 |
|---|---|
| Airport | Newark Liberty International Airport (KEWR) |
Arrival
| Time | N/A |
|---|---|
| Airport | Ontario International Airport (KONT) |
| Time | Latitude | Longitude | Altitude | Speed | Heading |
|---|---|---|---|---|---|
| 2026-05-01 12:28 | 40.67691 | -74.18372 | 20 ft | 0 kts | 205° |
| 2026-05-01 12:38 | 40.67692 | -74.18372 | 21 ft | 1 kts | 206° |
| 2026-05-01 12:39 | 40.67705 | -74.18363 | 21 ft | 1 kts | 205° |
| 2026-05-01 12:39 | 40.67714 | -74.18358 | 21 ft | 2 kts | 199° |
| 2026-05-01 12:39 | 40.67728 | -74.18355 | 21 ft | 2 kts | 175° |
| 2026-05-01 12:39 | 40.67743 | -74.18359 | 21 ft | 2 kts | 156° |
| 2026-05-01 12:40 | 40.67756 | -74.18368 | 20 ft | 2 kts | 137° |
| 2026-05-01 12:40 | 40.67766 | -74.18384 | 21 ft | 2 kts | 118° |
| 2026-05-01 12:40 | 40.67771 | -74.18401 | 20 ft | 1 kts | 100° |
| 2026-05-01 12:40 | 40.67772 | -74.18409 | 20 ft | 0 kts | 96° |
| 2026-05-01 12:41 | 40.67772 | -74.18410 | 20 ft | 0 kts | 96° |
| 2026-05-01 12:42 | 40.67772 | -74.18408 | 20 ft | 1 kts | 97° |
| 2026-05-01 12:43 | 40.67765 | -74.18371 | 20 ft | 7 kts | 107° |
| 2026-05-01 12:43 | 40.67748 | -74.18314 | 21 ft | 6 kts | 116° |
| 2026-05-01 12:43 | 40.67725 | -74.18252 | 21 ft | 7 kts | 116° |
| 2026-05-01 12:43 | 40.67700 | -74.18185 | 21 ft | 8 kts | 117° |
| 2026-05-01 12:44 | 40.67667 | -74.18130 | 21 ft | 7 kts | 144° |
| 2026-05-01 12:44 | 40.67632 | -74.18092 | 21 ft | 6 kts | 130° |
| 2026-05-01 12:44 | 40.67651 | -74.18037 | 21 ft | 3 kts | 30° |
| 2026-05-01 12:45 | 40.67706 | -74.18001 | 21 ft | 7 kts | 26° |
| 2026-05-01 12:45 | 40.67767 | -74.17963 | 21 ft | 10 kts | 26° |
| 2026-05-01 12:45 | 40.67825 | -74.17926 | 21 ft | 8 kts | 26° |
| 2026-05-01 12:46 | 40.67876 | -74.17893 | 21 ft | 7 kts | 26° |
| 2026-05-01 12:46 | 40.67949 | -74.17847 | 21 ft | 13 kts | 27° |
| 2026-05-01 12:46 | 40.68030 | -74.17795 | 21 ft | 12 kts | 26° |
| 2026-05-01 12:46 | 40.68101 | -74.17750 | 20 ft | 10 kts | 26° |
| 2026-05-01 12:47 | 40.68164 | -74.17710 | 20 ft | 10 kts | 26° |
| 2026-05-01 12:47 | 40.68234 | -74.17665 | 20 ft | 11 kts | 26° |
| 2026-05-01 12:47 | 40.68325 | -74.17608 | 20 ft | 17 kts | 25° |
| 2026-05-01 12:47 | 40.68439 | -74.17535 | 20 ft | 17 kts | 26° |
| 2026-05-01 12:48 | 40.68543 | -74.17469 | 20 ft | 15 kts | 26° |
| 2026-05-01 12:48 | 40.68634 | -74.17412 | 20 ft | 13 kts | 25° |
| 2026-05-01 12:48 | 40.68713 | -74.17361 | 20 ft | 11 kts | 26° |
| 2026-05-01 12:48 | 40.68782 | -74.17319 | 20 ft | 10 kts | 25° |
| 2026-05-01 12:49 | 40.68843 | -74.17281 | 20 ft | 9 kts | 26° |
| 2026-05-01 12:49 | 40.68903 | -74.17242 | 20 ft | 11 kts | 26° |
| 2026-05-01 12:49 | 40.68996 | -74.17184 | 20 ft | 17 kts | 25° |
| 2026-05-01 12:49 | 40.69118 | -74.17108 | 20 ft | 21 kts | 25° |
| 2026-05-01 12:50 | 40.69263 | -74.17014 | 19 ft | 23 kts | 26° |
| 2026-05-01 12:50 | 40.69413 | -74.16918 | 19 ft | 24 kts | 26° |
| 2026-05-01 12:50 | 40.69567 | -74.16821 | 19 ft | 23 kts | 26° |
| 2026-05-01 12:50 | 40.69703 | -74.16736 | 19 ft | 21 kts | 25° |
| 2026-05-01 12:51 | 40.69825 | -74.16659 | 19 ft | 18 kts | 26° |
| 2026-05-01 12:51 | 40.69897 | -74.16611 | 19 ft | 7 kts | 38° |
| 2026-05-01 12:51 | 40.69899 | -74.16502 | 19 ft | 5 kts | 104° |
| 2026-05-01 12:52 | 40.69881 | -74.16469 | 19 ft | 3 kts | 157° |
| 2026-05-01 12:52 | 40.69830 | -74.16491 | 19 ft | 17 kts | 206° |
| 2026-05-01 12:52 | 40.69519 | -74.16695 | 20 ft | 82 kts | 204° |
| 2026-05-01 12:53 | 40.67774 | -74.17816 | 61 ft | 185 kts | 210° |
| 2026-05-01 12:53 | 40.66602 | -74.18600 | 618 ft | 190 kts | 209° |
| 2026-05-01 12:53 | 40.65373 | -74.19130 | 1383 ft | 186 kts | 191° |
| 2026-05-01 12:54 | 40.64046 | -74.19516 | 1622 ft | 199 kts | 206° |
| 2026-05-01 12:54 | 40.61811 | -74.21973 | 3011 ft | 230 kts | 239° |
| 2026-05-01 12:54 | 40.60946 | -74.23848 | 3897 ft | 249 kts | 247° |
| 2026-05-01 12:55 | 40.59496 | -74.28050 | 6386 ft | 260 kts | 252° |
| 2026-05-01 12:55 | 40.59085 | -74.30316 | 7567 ft | 259 kts | 270° |
| 2026-05-01 12:55 | 40.59027 | -74.32631 | 8804 ft | 257 kts | 272° |
| 2026-05-01 12:56 | 40.58934 | -74.34931 | 9938 ft | 257 kts | 271° |
| 2026-05-01 12:56 | 40.58620 | -74.37309 | 10738 ft | 273 kts | 257° |
| 2026-05-01 12:56 | 40.57993 | -74.39735 | 11396 ft | 289 kts | 255° |
| 2026-05-01 12:56 | 40.57315 | -74.42275 | 12109 ft | 303 kts | 255° |
| 2026-05-01 12:57 | 40.56606 | -74.44916 | 12800 ft | 317 kts | 255° |